createdAt,value
2022-11-18T00:00:55.888Z,8.12
2022-11-18T00:03:23.102Z,8.08
2022-11-18T00:05:57.648Z,8.11
2022-11-18T00:08:25.282Z,8.05
2022-11-18T00:10:52.484Z,7.93
2022-11-18T00:13:37.391Z,7.93
2022-11-18T00:16:06.688Z,7.84
2022-11-18T00:18:33.422Z,7.80
2022-11-18T00:21:05.169Z,7.81
2022-11-18T00:23:31.958Z,7.84
2022-11-18T00:26:03.448Z,7.74
2022-11-18T00:28:30.849Z,7.69
2022-11-18T00:31:02.748Z,7.70
2022-11-18T00:33:29.190Z,7.63
2022-11-18T00:35:56.370Z,7.56
2022-11-18T00:38:22.958Z,7.55
2022-11-18T00:40:49.399Z,7.55
2022-11-18T00:43:16.140Z,7.55
2022-11-18T00:45:43.197Z,7.55
2022-11-18T00:48:09.711Z,7.53
2022-11-18T00:50:36.099Z,7.66
2022-11-18T00:53:02.606Z,7.69
2022-11-18T00:55:29.016Z,7.77
2022-11-18T00:57:55.475Z,7.69
2022-11-18T01:00:21.829Z,7.65
2022-11-18T01:02:48.328Z,7.66
2022-11-18T01:05:14.767Z,7.70
2022-11-18T01:07:41.443Z,7.66
2022-11-18T01:10:08.161Z,7.67
2022-11-18T01:12:54.701Z,7.74
2022-11-18T01:15:21.216Z,7.70
2022-11-18T01:17:47.657Z,7.79
2022-11-18T01:20:15.599Z,7.96
2022-11-18T01:22:42.178Z,7.96
2022-11-18T01:25:08.907Z,7.98
2022-11-18T01:27:35.379Z,7.93
2022-11-18T01:30:01.867Z,7.92
2022-11-18T01:32:28.597Z,7.93
2022-11-18T01:34:54.985Z,8.03
2022-11-18T01:37:21.534Z,8.07
2022-11-18T01:39:47.976Z,7.95
2022-11-18T01:42:16.800Z,7.92
2022-11-18T01:45:05.218Z,7.86
2022-11-18T01:47:42.650Z,7.82
2022-11-18T01:50:10.035Z,7.79
2022-11-18T01:52:37.706Z,7.85
2022-11-18T01:55:11.581Z,7.75
2022-11-18T01:57:38.417Z,7.69
2022-11-18T02:00:06.485Z,7.72
2022-11-18T02:02:36.367Z,7.66
2022-11-18T02:05:05.097Z,7.63
2022-11-18T02:07:35.591Z,7.61
2022-11-18T02:10:05.143Z,7.64
2022-11-18T02:12:31.820Z,7.55
2022-11-18T02:14:59.403Z,7.52
2022-11-18T02:18:03.261Z,7.46
2022-11-18T02:20:37.171Z,7.40
2022-11-18T02:23:09.663Z,7.38
2022-11-18T02:25:54.364Z,7.33
2022-11-18T02:28:36.809Z,7.34
2022-11-18T02:31:19.220Z,7.40
2022-11-18T02:33:54.342Z,7.40
2022-11-18T02:36:23.414Z,7.40
2022-11-18T02:38:57.085Z,7.45
2022-11-18T02:41:27.815Z,7.44
2022-11-18T02:43:59.383Z,7.45
2022-11-18T02:46:30.181Z,7.49
2022-11-18T02:48:57.186Z,7.47
2022-11-18T02:51:27.037Z,7.46
2022-11-18T02:53:57.251Z,7.42
2022-11-18T02:56:27.101Z,7.43
2022-11-18T02:58:53.729Z,7.41
2022-11-18T03:01:24.838Z,7.39
2022-11-18T03:03:51.455Z,7.36
2022-11-18T03:06:36.278Z,7.34
2022-11-18T03:09:08.632Z,7.38
2022-11-18T03:12:10.180Z,7.39
2022-11-18T03:14:46.826Z,7.33
2022-11-18T03:17:34.632Z,7.29
2022-11-18T03:20:28.354Z,7.35
2022-11-18T03:23:04.383Z,7.35
2022-11-18T03:25:44.000Z,7.37
2022-11-18T03:28:38.283Z,7.40
2022-11-18T03:31:18.871Z,7.40
2022-11-18T03:33:51.938Z,7.40
2022-11-18T03:36:22.882Z,7.43
2022-11-18T03:38:54.199Z,7.46
2022-11-18T03:41:23.897Z,7.43
2022-11-18T03:43:59.561Z,7.46
2022-11-18T03:46:32.587Z,7.47
2022-11-18T03:49:00.275Z,7.43
2022-11-18T03:51:35.715Z,7.43
2022-11-18T03:54:21.905Z,7.47
2022-11-18T03:56:57.783Z,7.41
2022-11-18T03:59:35.722Z,7.51
2022-11-18T04:02:15.360Z,7.67
2022-11-18T04:04:45.474Z,7.48
2022-11-18T04:07:14.756Z,7.46
2022-11-18T04:10:04.176Z,7.39
2022-11-18T04:12:33.077Z,7.31
2022-11-18T04:15:01.180Z,7.27
2022-11-18T04:17:28.606Z,7.29
2022-11-18T04:19:55.611Z,7.29
2022-11-18T04:22:22.267Z,7.29
2022-11-18T04:24:48.746Z,7.31
2022-11-18T04:27:15.139Z,7.35
2022-11-18T04:29:41.626Z,7.36
2022-11-18T04:32:08.133Z,7.38
2022-11-18T04:34:34.687Z,7.48
2022-11-18T04:37:01.115Z,7.56
2022-11-18T04:39:28.500Z,7.63
2022-11-18T04:41:57.874Z,7.66
2022-11-18T04:44:34.562Z,7.74
2022-11-18T04:47:03.648Z,7.79
2022-11-18T04:49:30.557Z,7.76
2022-11-18T04:51:59.159Z,7.81
2022-11-18T04:54:26.670Z,7.81
2022-11-18T04:56:54.117Z,7.78
2022-11-18T04:59:26.434Z,7.72
2022-11-18T05:01:53.935Z,7.70
2022-11-18T05:04:23.271Z,7.68
2022-11-18T05:06:50.049Z,7.66
2022-11-18T05:09:18.158Z,7.67
2022-11-18T05:12:04.348Z,7.63
2022-11-18T05:14:31.370Z,7.65
2022-11-18T05:17:00.150Z,7.62
2022-11-18T05:19:26.813Z,7.59
2022-11-18T05:21:53.941Z,7.53
2022-11-18T05:24:20.953Z,7.49
2022-11-18T05:26:47.570Z,7.46
2022-11-18T05:29:14.007Z,7.40
2022-11-18T05:31:40.587Z,7.38
2022-11-18T05:34:06.972Z,7.38
2022-11-18T05:36:34.605Z,7.38
2022-11-18T05:39:01.569Z,7.36
2022-11-18T05:41:47.631Z,7.36
2022-11-18T05:44:14.142Z,7.35
2022-11-18T05:46:40.507Z,7.33
2022-11-18T05:49:07.652Z,7.30
2022-11-18T05:51:35.879Z,7.31
2022-11-18T05:54:10.413Z,7.30
2022-11-18T05:56:44.998Z,7.26
2022-11-18T05:59:11.920Z,7.27
2022-11-18T06:01:40.342Z,7.34
2022-11-18T06:04:15.273Z,7.36
2022-11-18T06:06:43.260Z,7.36
2022-11-18T06:09:12.121Z,7.39
2022-11-18T06:11:43.679Z,7.40
2022-11-18T06:14:14.963Z,7.41
2022-11-18T06:16:49.960Z,7.45
2022-11-18T06:19:17.240Z,7.48
2022-11-18T06:21:45.355Z,7.48
2022-11-18T06:24:13.545Z,7.50
2022-11-18T06:26:40.981Z,7.48
2022-11-18T06:29:10.266Z,7.41
2022-11-18T06:31:36.919Z,7.32
2022-11-18T06:34:03.404Z,7.21
2022-11-18T06:36:30.087Z,7.33
2022-11-18T06:38:56.570Z,7.25
2022-11-18T06:41:23.373Z,7.23
2022-11-18T06:43:49.812Z,7.25
2022-11-18T06:46:36.022Z,7.27
2022-11-18T06:49:03.317Z,7.27
2022-11-18T06:51:30.066Z,7.30
2022-11-18T06:53:56.465Z,7.31
2022-11-18T06:56:23.967Z,7.32
2022-11-18T06:58:57.884Z,7.32
2022-11-18T07:01:26.982Z,7.28
2022-11-18T07:03:53.644Z,7.30
2022-11-18T07:06:23.628Z,7.33
2022-11-18T07:08:51.151Z,7.33
2022-11-18T07:11:20.543Z,7.33
2022-11-18T07:13:47.816Z,7.35
2022-11-18T07:16:16.929Z,7.37
2022-11-18T07:18:44.771Z,7.33
2022-11-18T07:21:17.026Z,7.33
2022-11-18T07:23:44.422Z,7.36
2022-11-18T07:26:11.721Z,7.42
2022-11-18T07:28:38.139Z,7.43
2022-11-18T07:31:15.865Z,7.47
2022-11-18T07:33:43.318Z,7.53
2022-11-18T07:36:12.283Z,7.56
2022-11-18T07:38:39.536Z,7.60
2022-11-18T07:41:08.837Z,7.64
2022-11-18T07:43:36.399Z,7.66
2022-11-18T07:46:27.074Z,7.77
2022-11-18T07:48:56.311Z,7.81
2022-11-18T07:51:25.562Z,7.83
2022-11-18T07:53:52.397Z,7.88
2022-11-18T07:56:21.102Z,8.04
2022-11-18T07:58:47.880Z,8.07
2022-11-18T08:01:16.930Z,8.06
2022-11-18T08:03:44.194Z,8.08
2022-11-18T08:06:12.571Z,8.12
2022-11-18T08:08:39.228Z,8.21
2022-11-18T08:11:08.501Z,8.29
2022-11-18T08:13:35.725Z,8.32
2022-11-18T08:16:03.380Z,8.35
2022-11-18T08:18:31.804Z,8.36
2022-11-18T08:21:03.352Z,8.42
2022-11-18T08:23:33.157Z,8.39
2022-11-18T08:26:07.796Z,8.38
2022-11-18T08:28:34.284Z,8.38
2022-11-18T08:31:08.372Z,8.38
2022-11-18T08:33:34.760Z,8.36
2022-11-18T08:36:07.007Z,8.38
2022-11-18T08:38:33.621Z,8.36
2022-11-18T08:41:00.148Z,8.33
2022-11-18T08:43:26.800Z,8.43
2022-11-18T08:45:53.173Z,8.40
2022-11-18T08:48:19.567Z,8.37
2022-11-18T08:50:46.161Z,8.33
2022-11-18T08:53:12.494Z,8.32
2022-11-18T08:55:38.977Z,8.33
2022-11-18T08:58:05.317Z,8.36
2022-11-18T09:00:31.864Z,8.43
2022-11-18T09:02:58.277Z,8.45
2022-11-18T09:05:24.686Z,8.49
2022-11-18T09:07:51.667Z,8.62
2022-11-18T09:10:18.311Z,8.63
2022-11-18T09:12:44.847Z,8.77
2022-11-18T09:15:13.825Z,8.74
2022-11-18T09:17:41.203Z,8.71
2022-11-18T09:20:08.257Z,8.74
2022-11-18T09:22:37.355Z,8.72
2022-11-18T09:25:03.887Z,8.70
2022-11-18T09:27:30.556Z,8.60
2022-11-18T09:29:56.997Z,8.55
2022-11-18T09:32:23.573Z,8.52
2022-11-18T09:34:49.980Z,8.55
2022-11-18T09:37:16.424Z,8.54
2022-11-18T09:39:43.021Z,8.59
2022-11-18T09:42:26.391Z,8.66
2022-11-18T09:45:15.302Z,8.69
2022-11-18T09:47:43.751Z,8.78
2022-11-18T09:50:47.704Z,8.86
2022-11-18T09:53:14.343Z,8.97
2022-11-18T09:55:42.018Z,9.07
2022-11-18T09:58:18.495Z,9.17
2022-11-18T10:00:46.076Z,9.26
2022-11-18T10:03:31.972Z,9.30
2022-11-18T10:06:23.394Z,9.30
2022-11-18T10:09:20.922Z,9.32
2022-11-18T10:12:25.930Z,9.39
2022-11-18T10:15:33.742Z,9.53
2022-11-18T10:18:52.859Z,9.61
2022-11-18T10:21:41.271Z,9.67
2022-11-18T10:24:23.947Z,9.58
2022-11-18T10:26:56.033Z,9.56
2022-11-18T10:29:23.656Z,9.57
2022-11-18T10:32:04.292Z,9.63
2022-11-18T10:34:32.900Z,9.71
2022-11-18T10:36:59.891Z,9.84
2022-11-18T10:39:26.397Z,9.94
2022-11-18T10:42:18.024Z,10.02
2022-11-18T10:44:44.411Z,10.03
2022-11-18T10:47:16.854Z,9.92
2022-11-18T10:49:43.295Z,9.95
2022-11-18T10:52:11.890Z,10.08
2022-11-18T10:54:39.009Z,10.08
2022-11-18T10:57:24.720Z,10.00
2022-11-18T10:59:54.522Z,10.01
2022-11-18T11:02:31.846Z,10.09
2022-11-18T11:05:01.568Z,10.07
2022-11-18T11:07:36.175Z,10.19
2022-11-18T11:10:08.476Z,10.38
2022-11-18T11:12:38.103Z,10.61
2022-11-18T11:15:18.572Z,10.91
2022-11-18T11:18:25.338Z,11.08
2022-11-18T11:20:52.604Z,11.24
2022-11-18T11:23:23.490Z,11.26
2022-11-18T11:28:52.946Z,11.06
2022-11-18T11:31:35.590Z,11.06
2022-11-18T11:34:25.917Z,11.04
2022-11-18T11:37:15.533Z,11.06
2022-11-18T11:40:00.708Z,11.18
2022-11-18T11:42:58.815Z,11.07
2022-11-18T11:45:28.431Z,11.07
2022-11-18T11:48:13.084Z,11.00
2022-11-18T11:51:05.010Z,11.02
2022-11-18T11:53:44.228Z,11.01
2022-11-18T11:56:28.993Z,10.94
2022-11-18T11:59:05.869Z,10.80
2022-11-18T12:01:50.995Z,10.74
2022-11-18T12:04:49.792Z,10.81
2022-11-18T12:07:32.495Z,10.68
2022-11-18T12:10:05.370Z,10.49
2022-11-18T12:12:42.402Z,10.28
2022-11-18T12:15:26.817Z,10.18
2022-11-18T12:17:53.096Z,10.29
2022-11-18T12:20:38.327Z,10.36
2022-11-18T12:23:12.226Z,10.55
2022-11-18T12:25:47.619Z,10.78
2022-11-18T12:28:26.342Z,11.05
2022-11-18T12:31:17.698Z,11.22
2022-11-18T12:33:50.020Z,11.46
2022-11-18T12:36:31.060Z,11.62
2022-11-18T12:38:58.321Z,11.80
2022-11-18T12:42:15.267Z,11.97
2022-11-18T12:44:43.276Z,11.70
2022-11-18T12:47:31.510Z,11.47
2022-11-18T12:50:00.790Z,11.52
2022-11-18T12:52:48.426Z,11.31
2022-11-18T12:55:24.991Z,11.17
2022-11-18T12:57:51.912Z,11.04
2022-11-18T13:00:24.119Z,10.98
2022-11-18T13:02:52.337Z,10.95
2022-11-18T13:05:24.416Z,10.79
2022-11-18T13:08:14.802Z,10.84
2022-11-18T13:10:55.857Z,10.74
2022-11-18T13:13:33.217Z,10.73
2022-11-18T13:16:35.572Z,10.74
2022-11-18T13:19:04.459Z,10.80
2022-11-18T13:21:49.548Z,10.81
2022-11-18T13:24:21.665Z,10.83
2022-11-18T13:26:54.352Z,10.83
2022-11-18T13:29:36.389Z,10.86
2022-11-18T13:32:22.606Z,10.82
2022-11-18T13:34:57.606Z,10.83
2022-11-18T13:37:32.099Z,10.76
2022-11-18T13:39:58.546Z,10.71
2022-11-18T13:42:27.261Z,10.69
2022-11-18T13:44:58.769Z,10.70
2022-11-18T13:47:31.235Z,10.59
2022-11-18T13:50:28.826Z,10.53
2022-11-18T13:53:26.962Z,10.47
2022-11-18T13:56:04.550Z,10.42
2022-11-18T13:59:10.276Z,10.41
2022-11-18T14:01:32.179Z,10.39
2022-11-18T14:04:01.836Z,10.34
2022-11-18T14:06:32.543Z,10.26
2022-11-18T14:09:14.064Z,10.14
2022-11-18T14:11:43.094Z,10.10
2022-11-18T14:14:27.992Z,10.11
2022-11-18T14:17:05.199Z,10.07
2022-11-18T14:19:33.784Z,10.06
2022-11-18T14:22:10.069Z,10.07
2022-11-18T14:24:39.606Z,10.03
2022-11-18T14:27:38.431Z,9.99
2022-11-18T14:30:34.010Z,10.03
2022-11-18T14:33:06.209Z,10.03
2022-11-18T14:35:35.153Z,9.99
2022-11-18T14:38:30.275Z,9.91
2022-11-18T14:40:58.629Z,9.67
2022-11-18T14:43:25.924Z,9.52
2022-11-18T14:45:55.531Z,9.55
2022-11-18T14:48:26.059Z,9.44
2022-11-18T14:50:56.238Z,9.51
2022-11-18T14:53:22.629Z,9.41
2022-11-18T14:55:51.669Z,9.26
2022-11-18T14:58:18.183Z,9.25
2022-11-18T15:00:47.597Z,9.03
2022-11-18T15:03:14.794Z,8.95
2022-11-18T15:05:41.640Z,8.87
2022-11-18T15:08:08.245Z,8.88
2022-11-18T15:10:35.012Z,8.91
2022-11-18T15:13:01.383Z,8.89
2022-11-18T15:15:28.071Z,8.90
2022-11-18T15:17:54.509Z,8.92
2022-11-18T15:20:23.211Z,8.87
2022-11-18T15:22:51.041Z,8.80
2022-11-18T15:25:17.649Z,8.77
2022-11-18T15:27:44.067Z,8.64
2022-11-18T15:30:14.660Z,8.57
2022-11-18T15:32:41.629Z,8.44
2022-11-18T15:35:10.978Z,8.35
2022-11-18T15:37:37.380Z,8.28
2022-11-18T15:40:04.262Z,8.11
2022-11-18T15:42:30.708Z,7.98
2022-11-18T15:44:57.181Z,7.93
2022-11-18T15:47:25.164Z,7.87
2022-11-18T15:49:51.623Z,7.81
2022-11-18T15:52:18.950Z,7.72
2022-11-18T15:54:45.384Z,7.62
2022-11-18T15:57:11.868Z,7.57
2022-11-18T15:59:38.269Z,7.42
2022-11-18T16:02:04.858Z,7.40
2022-11-18T16:04:31.277Z,7.31
2022-11-18T16:06:59.955Z,7.28
2022-11-18T16:09:47.498Z,7.20
2022-11-18T16:12:32.643Z,7.14
2022-11-18T16:15:17.823Z,7.23
2022-11-18T16:17:44.628Z,7.18
2022-11-18T16:20:11.292Z,7.16
2022-11-18T16:22:37.760Z,7.13
2022-11-18T16:25:04.509Z,7.16
2022-11-18T16:27:31.792Z,7.16
2022-11-18T16:29:58.571Z,7.13
2022-11-18T16:32:25.160Z,7.16
2022-11-18T16:34:55.269Z,7.16
2022-11-18T16:37:24.669Z,7.17
2022-11-18T16:39:51.035Z,7.20
2022-11-18T16:42:17.500Z,7.24
2022-11-18T16:44:43.911Z,7.28
2022-11-18T16:47:14.951Z,7.31
2022-11-18T16:49:42.681Z,7.31
2022-11-18T16:52:09.261Z,7.28
2022-11-18T16:54:41.078Z,7.24
2022-11-18T16:57:11.056Z,7.22
2022-11-18T16:59:37.575Z,7.21
2022-11-18T17:02:05.103Z,7.20
2022-11-18T17:04:33.511Z,7.18
2022-11-18T17:07:00.197Z,7.17
2022-11-18T17:09:27.701Z,7.14
2022-11-18T17:11:55.209Z,7.15
2022-11-18T17:14:22.712Z,7.14
2022-11-18T17:16:49.733Z,7.20
2022-11-18T17:19:22.052Z,7.17
2022-11-18T17:21:50.223Z,7.18
2022-11-18T17:24:20.000Z,7.19
2022-11-18T17:26:47.388Z,7.23
2022-11-18T17:29:14.330Z,7.23
2022-11-18T17:31:41.939Z,7.22
2022-11-18T17:34:13.880Z,7.20
2022-11-18T17:36:41.074Z,7.18
2022-11-18T17:39:10.632Z,7.16
2022-11-18T17:41:55.519Z,7.17
2022-11-18T17:44:22.218Z,7.16
2022-11-18T17:46:49.234Z,7.21
2022-11-18T17:49:21.070Z,7.18
2022-11-18T17:51:48.130Z,7.20
2022-11-18T17:54:14.900Z,7.22
2022-11-18T17:56:41.990Z,7.22
2022-11-18T17:59:08.579Z,7.24
2022-11-18T18:01:35.655Z,7.27
2022-11-18T18:04:02.751Z,7.23
2022-11-18T18:06:29.295Z,7.27
2022-11-18T18:08:57.402Z,7.20
2022-11-18T18:11:24.195Z,7.26
2022-11-18T18:14:09.571Z,7.28
2022-11-18T18:16:36.248Z,7.27
2022-11-18T18:19:04.869Z,7.27
2022-11-18T18:21:32.156Z,7.19
2022-11-18T18:23:58.892Z,7.15
2022-11-18T18:26:31.314Z,7.16
2022-11-18T18:29:01.763Z,7.10
2022-11-18T18:31:29.029Z,7.12
2022-11-18T18:33:55.675Z,7.14
2022-11-18T18:36:22.967Z,7.20
2022-11-18T18:38:49.468Z,7.24
2022-11-18T18:41:18.855Z,7.17
2022-11-18T18:43:46.031Z,7.14
2022-11-18T18:46:30.186Z,7.19
2022-11-18T18:49:29.771Z,7.21
2022-11-18T18:51:56.245Z,7.21
2022-11-18T18:54:22.881Z,7.21
2022-11-18T18:56:49.425Z,7.19
2022-11-18T18:59:15.963Z,7.20
2022-11-18T19:01:42.770Z,7.17
2022-11-18T19:04:12.335Z,7.21
2022-11-18T19:09:26.588Z,7.25
2022-11-18T19:12:12.164Z,7.25
2022-11-18T19:14:39.298Z,7.26
2022-11-18T19:17:10.707Z,7.24
2022-11-18T19:19:59.108Z,7.21
2022-11-18T19:22:26.149Z,7.24
2022-11-18T19:24:53.555Z,7.18
2022-11-18T19:27:20.845Z,7.16
2022-11-18T19:29:47.335Z,7.16
2022-11-18T19:32:14.482Z,7.08
2022-11-18T19:34:41.808Z,7.03
2022-11-18T19:37:08.393Z,7.04
2022-11-18T19:39:35.396Z,7.04
2022-11-18T19:42:02.119Z,7.03
2022-11-18T19:44:28.985Z,7.00
2022-11-18T19:46:55.572Z,6.95
2022-11-18T19:49:22.459Z,6.91
2022-11-18T19:51:49.490Z,6.89
2022-11-18T19:54:15.903Z,6.88
2022-11-18T19:56:42.852Z,6.84
2022-11-18T19:59:11.975Z,6.85
2022-11-18T20:01:38.876Z,6.87
2022-11-18T20:04:05.706Z,6.86
2022-11-18T20:06:35.077Z,6.87
2022-11-18T20:09:01.954Z,6.84
2022-11-18T20:11:28.847Z,6.83
2022-11-18T20:13:55.319Z,6.80
2022-11-18T20:16:24.997Z,6.78
2022-11-18T20:19:07.790Z,6.71
2022-11-18T20:21:34.604Z,6.71
2022-11-18T20:24:03.457Z,6.69
2022-11-18T20:26:39.892Z,6.71
2022-11-18T20:29:07.578Z,6.76
2022-11-18T20:31:35.384Z,6.82
2022-11-18T20:34:02.353Z,6.82
2022-11-18T20:36:31.436Z,6.84
2022-11-18T20:39:00.270Z,6.82
2022-11-18T20:41:30.310Z,6.82
2022-11-18T20:43:57.642Z,6.80
2022-11-18T20:46:24.952Z,6.81
2022-11-18T20:48:51.564Z,6.86
2022-11-18T20:51:23.547Z,6.90
2022-11-18T20:53:51.117Z,6.89
2022-11-18T20:56:22.971Z,6.87
2022-11-18T20:58:49.710Z,6.92
2022-11-18T21:01:19.193Z,6.84
2022-11-18T21:03:52.842Z,6.83
2022-11-18T21:06:20.318Z,6.84
2022-11-18T21:08:46.930Z,6.88
2022-11-18T21:11:14.248Z,6.91
2022-11-18T21:14:01.046Z,6.93
2022-11-18T21:16:27.929Z,6.99
2022-11-18T21:18:54.956Z,6.99
2022-11-18T21:21:40.143Z,7.01
2022-11-18T21:24:07.459Z,7.02
2022-11-18T21:26:35.569Z,7.03
2022-11-18T21:29:04.779Z,7.03
2022-11-18T21:31:32.378Z,7.05
2022-11-18T21:33:59.191Z,7.10
2022-11-18T21:36:27.530Z,7.15
2022-11-18T21:38:54.110Z,7.10
2022-11-18T21:41:20.704Z,7.12
2022-11-18T21:46:34.795Z,7.11
2022-11-18T21:49:02.339Z,7.12
2022-11-18T21:51:31.263Z,7.23
2022-11-18T21:53:58.352Z,7.04
2022-11-18T21:56:28.777Z,6.99
2022-11-18T21:58:56.419Z,6.97
2022-11-18T22:01:25.947Z,6.99
2022-11-18T22:03:55.796Z,6.99
2022-11-18T22:06:24.575Z,7.02
2022-11-18T22:08:52.062Z,7.03
2022-11-18T22:11:20.524Z,7.05
2022-11-18T22:13:47.129Z,7.05
2022-11-18T22:16:16.053Z,7.09
2022-11-18T22:18:44.581Z,7.10
2022-11-18T22:21:17.562Z,7.13
2022-11-18T22:23:44.893Z,7.08
2022-11-18T22:26:14.183Z,7.08
2022-11-18T22:28:41.204Z,7.06
2022-11-18T22:31:16.112Z,7.05
2022-11-18T22:33:43.755Z,7.06
2022-11-18T22:36:15.693Z,7.11
2022-11-18T22:38:43.825Z,7.06
2022-11-18T22:41:39.944Z,7.05
2022-11-18T22:44:08.451Z,7.12
2022-11-18T22:46:35.927Z,7.11
2022-11-18T22:49:02.378Z,7.07
2022-11-18T22:51:29.156Z,7.32
2022-11-18T22:54:15.791Z,7.16
2022-11-18T22:56:42.105Z,7.17
2022-11-18T22:59:10.513Z,7.19
2022-11-18T23:01:39.535Z,7.21
2022-11-18T23:04:06.343Z,7.25
2022-11-18T23:06:32.783Z,7.28
2022-11-18T23:08:59.306Z,7.24
2022-11-18T23:11:44.480Z,7.19
2022-11-18T23:14:11.131Z,7.21
2022-11-18T23:16:40.240Z,7.17
2022-11-18T23:19:11.971Z,7.18
2022-11-18T23:21:38.647Z,7.12
2022-11-18T23:24:05.537Z,7.10
2022-11-18T23:26:32.312Z,7.08
2022-11-18T23:28:58.779Z,7.08
2022-11-18T23:31:27.815Z,6.98
2022-11-18T23:33:57.757Z,7.17
2022-11-18T23:36:25.543Z,7.07
2022-11-18T23:38:53.350Z,7.04
2022-11-18T23:41:20.667Z,7.04
2022-11-18T23:43:48.329Z,6.99
2022-11-18T23:46:17.198Z,6.98
2022-11-18T23:48:44.833Z,6.99
2022-11-18T23:51:12.597Z,7.01
2022-11-18T23:53:39.683Z,7.04
2022-11-18T23:56:12.030Z,7.04
2022-11-18T23:58:39.886Z,7.05
